createdAt,value
2023-12-23T00:01:02.438Z,2.31
2023-12-23T00:03:29.329Z,2.27
2023-12-23T00:05:56.213Z,2.23
2023-12-23T00:08:23.736Z,2.20
2023-12-23T00:10:51.331Z,2.18
2023-12-23T00:13:18.214Z,2.10
2023-12-23T00:15:45.243Z,2.06
2023-12-23T00:18:12.284Z,2.02
2023-12-23T00:20:39.278Z,1.99
2023-12-23T00:23:06.223Z,1.99
2023-12-23T00:25:33.190Z,1.99
2023-12-23T00:28:00.054Z,1.92
2023-12-23T00:30:26.854Z,1.87
2023-12-23T00:32:53.726Z,1.87
2023-12-23T00:35:20.549Z,1.82
2023-12-23T00:37:47.929Z,1.83
2023-12-23T00:40:16.670Z,1.74
2023-12-23T00:42:44.419Z,1.73
2023-12-23T00:45:11.411Z,1.68
2023-12-23T00:47:39.561Z,1.61
2023-12-23T00:50:07.142Z,1.59
2023-12-23T00:52:35.214Z,1.49
2023-12-23T00:55:03.175Z,1.41
2023-12-23T00:57:29.955Z,1.37
2023-12-23T00:59:58.307Z,1.37
2023-12-23T01:02:25.207Z,1.28
2023-12-23T01:04:52.056Z,1.14
2023-12-23T01:07:19.299Z,1.17
2023-12-23T01:09:46.173Z,1.17
2023-12-23T01:12:13.108Z,1.10
2023-12-23T01:14:40.049Z,1.14
2023-12-23T01:17:07.141Z,1.15
2023-12-23T01:19:34.131Z,1.15
2023-12-23T01:22:01.764Z,1.07
2023-12-23T01:24:28.743Z,1.04
2023-12-23T01:26:55.605Z,1.03
2023-12-23T01:29:22.571Z,1.00
2023-12-23T01:31:49.626Z,0.94
2023-12-23T01:34:16.578Z,0.94
2023-12-23T01:36:43.378Z,0.98
2023-12-23T01:39:10.319Z,0.95
2023-12-23T01:41:37.202Z,0.99
2023-12-23T01:44:04.180Z,0.98
2023-12-23T01:46:31.153Z,0.96
2023-12-23T01:48:59.960Z,0.99
2023-12-23T01:51:27.022Z,1.00
2023-12-23T01:53:54.205Z,0.97
2023-12-23T01:56:21.157Z,0.99
2023-12-23T01:58:48.132Z,0.98
2023-12-23T02:01:15.065Z,0.92
2023-12-23T02:03:42.253Z,0.94
2023-12-23T02:06:09.768Z,0.86
2023-12-23T02:08:36.679Z,0.90
2023-12-23T02:11:06.259Z,0.84
2023-12-23T02:13:52.720Z,0.87
2023-12-23T02:16:19.790Z,0.86
2023-12-23T02:18:46.895Z,0.85
2023-12-23T02:21:13.920Z,0.81
2023-12-23T02:23:40.815Z,0.81
2023-12-23T02:26:10.286Z,0.77
2023-12-23T02:28:40.383Z,0.73
2023-12-23T02:31:09.192Z,0.78
2023-12-23T02:33:37.364Z,0.75
2023-12-23T02:36:05.416Z,0.76
2023-12-23T02:38:32.250Z,0.79
2023-12-23T02:40:59.123Z,0.76
2023-12-23T02:43:26.417Z,0.78
2023-12-23T02:45:53.261Z,0.79
2023-12-23T02:48:20.691Z,0.82
2023-12-23T02:50:47.591Z,0.79
2023-12-23T02:53:14.397Z,0.82
2023-12-23T02:55:41.413Z,0.83
2023-12-23T02:58:08.256Z,0.81
2023-12-23T03:00:35.226Z,0.86
2023-12-23T03:03:02.153Z,0.81
2023-12-23T03:05:29.246Z,0.84
2023-12-23T03:07:56.369Z,0.87
2023-12-23T03:10:23.267Z,0.81
2023-12-23T03:12:50.383Z,0.88
2023-12-23T03:15:17.732Z,0.89
2023-12-23T03:17:44.626Z,0.90
2023-12-23T03:20:11.864Z,0.90
2023-12-23T03:22:38.844Z,0.95
2023-12-23T03:25:06.168Z,0.99
2023-12-23T03:27:33.107Z,1.02
2023-12-23T03:29:59.920Z,1.02
2023-12-23T03:32:26.759Z,1.03
2023-12-23T03:34:53.738Z,1.13
2023-12-23T03:37:20.591Z,1.18
2023-12-23T03:39:47.495Z,1.19
2023-12-23T03:42:14.324Z,1.19
2023-12-23T03:44:41.218Z,1.21
2023-12-23T03:47:08.132Z,1.25
2023-12-23T03:49:35.033Z,1.32
2023-12-23T03:54:52.848Z,1.71
2023-12-23T03:57:19.656Z,2.03
2023-12-23T03:59:46.510Z,2.09
2023-12-23T04:02:13.474Z,2.36
2023-12-23T04:04:40.402Z,2.62
2023-12-23T04:07:07.456Z,2.70
2023-12-23T04:09:34.329Z,2.77
2023-12-23T04:12:01.218Z,2.90
2023-12-23T04:14:28.137Z,2.96
2023-12-23T04:16:54.978Z,3.02
2023-12-23T04:19:21.966Z,3.16
2023-12-23T04:21:48.867Z,3.28
2023-12-23T04:24:15.782Z,3.46
2023-12-23T04:26:42.760Z,3.49
2023-12-23T04:29:09.703Z,3.43
2023-12-23T04:31:36.785Z,3.44
2023-12-23T04:34:04.085Z,3.40
2023-12-23T04:36:31.086Z,3.38
2023-12-23T04:38:58.614Z,3.33
2023-12-23T04:41:25.601Z,3.31
2023-12-23T04:43:52.664Z,3.29
2023-12-23T04:46:19.649Z,3.30
2023-12-23T04:48:46.637Z,3.11
2023-12-23T04:51:13.644Z,2.91
2023-12-23T04:53:40.510Z,2.67
2023-12-23T04:56:07.716Z,2.55
2023-12-23T04:58:34.583Z,2.37
2023-12-23T05:01:01.516Z,2.14
2023-12-23T05:03:28.941Z,1.96
2023-12-23T05:05:55.906Z,1.60
2023-12-23T05:08:22.765Z,1.54
2023-12-23T05:10:49.708Z,1.56
2023-12-23T05:13:16.562Z,1.61
2023-12-23T05:15:43.493Z,1.66
2023-12-23T05:18:10.369Z,1.67
2023-12-23T05:20:37.290Z,1.78
2023-12-23T05:23:04.261Z,1.81
2023-12-23T05:25:31.994Z,1.87
2023-12-23T05:27:58.790Z,1.96
2023-12-23T05:30:26.478Z,1.98
2023-12-23T05:32:53.620Z,2.05
2023-12-23T05:35:20.886Z,2.04
2023-12-23T05:37:47.793Z,2.13
2023-12-23T05:40:14.859Z,2.17
2023-12-23T05:42:41.698Z,2.22
2023-12-23T05:45:09.270Z,2.23
2023-12-23T05:47:36.411Z,2.31
2023-12-23T05:50:03.387Z,2.35
2023-12-23T05:52:30.243Z,2.37
2023-12-23T05:54:57.786Z,2.35
2023-12-23T05:57:24.608Z,2.52
2023-12-23T05:59:51.471Z,2.47
2023-12-23T06:02:18.363Z,2.45
2023-12-23T06:04:45.369Z,2.44
2023-12-23T06:07:12.252Z,2.53
2023-12-23T06:09:39.102Z,2.55
2023-12-23T06:12:06.376Z,2.52
2023-12-23T06:14:33.192Z,2.60
2023-12-23T06:17:03.229Z,2.70
2023-12-23T06:19:30.078Z,2.62
2023-12-23T06:21:56.864Z,2.62
2023-12-23T06:24:23.634Z,2.67
2023-12-23T06:26:50.522Z,2.73
2023-12-23T06:29:17.396Z,2.72
2023-12-23T06:31:44.265Z,2.76
2023-12-23T06:34:11.193Z,2.78
2023-12-23T06:36:38.046Z,2.79
2023-12-23T06:39:04.868Z,2.73
2023-12-23T06:41:31.622Z,2.79
2023-12-23T06:43:58.446Z,2.76
2023-12-23T06:46:25.885Z,2.77
2023-12-23T06:48:53.227Z,2.74
2023-12-23T06:51:20.092Z,2.75
2023-12-23T06:53:48.883Z,2.76
2023-12-23T06:56:15.837Z,2.77
2023-12-23T06:58:44.525Z,2.76
2023-12-23T07:01:11.367Z,2.73
2023-12-23T07:03:38.285Z,2.73
2023-12-23T07:06:05.427Z,2.74
2023-12-23T07:08:32.253Z,2.71
2023-12-23T07:10:59.134Z,2.69
2023-12-23T07:13:26.250Z,2.66
2023-12-23T07:15:53.047Z,2.65
2023-12-23T07:18:19.926Z,2.62
2023-12-23T07:20:46.787Z,2.58
2023-12-23T07:23:13.621Z,2.54
2023-12-23T07:25:40.505Z,2.47
2023-12-23T07:28:07.537Z,2.45
2023-12-23T07:30:34.403Z,2.38
2023-12-23T07:33:01.490Z,2.39
2023-12-23T07:35:28.448Z,2.33
2023-12-23T07:37:55.358Z,2.29
2023-12-23T07:40:22.355Z,2.23
2023-12-23T07:42:49.576Z,2.12
2023-12-23T07:45:16.964Z,2.13
2023-12-23T07:47:44.010Z,2.10
2023-12-23T07:50:11.184Z,2.01
2023-12-23T07:52:38.268Z,1.96
2023-12-23T07:55:05.594Z,1.97
2023-12-23T07:57:32.602Z,1.87
2023-12-23T07:59:59.628Z,1.86
2023-12-23T08:02:26.622Z,1.87
2023-12-23T08:04:53.795Z,1.89
2023-12-23T08:07:21.143Z,1.91
2023-12-23T08:09:48.146Z,1.93
2023-12-23T08:12:15.090Z,1.92
2023-12-23T08:14:42.037Z,1.97
2023-12-23T08:17:09.062Z,2.02
2023-12-23T08:19:36.139Z,2.10
2023-12-23T08:22:03.162Z,2.10
2023-12-23T08:24:30.130Z,2.07
2023-12-23T08:26:57.859Z,2.08
2023-12-23T08:29:24.792Z,2.08
2023-12-23T08:31:52.136Z,2.10
2023-12-23T08:34:20.793Z,2.11
2023-12-23T08:36:49.227Z,2.09
2023-12-23T08:39:16.318Z,2.10
2023-12-23T08:41:43.250Z,2.10
2023-12-23T08:44:10.313Z,2.09
2023-12-23T08:46:37.323Z,2.11
2023-12-23T08:49:04.459Z,2.08
2023-12-23T08:51:31.796Z,2.08
2023-12-23T08:53:59.122Z,2.06
2023-12-23T08:56:26.208Z,2.04
2023-12-23T08:58:53.324Z,2.06
2023-12-23T09:01:20.309Z,2.03
2023-12-23T09:03:47.393Z,1.95
2023-12-23T09:06:14.498Z,1.86
2023-12-23T09:08:41.569Z,1.82
2023-12-23T09:11:08.674Z,1.76
2023-12-23T09:13:35.673Z,1.71
2023-12-23T09:16:03.944Z,1.60
2023-12-23T09:18:31.031Z,1.46
2023-12-23T09:20:58.352Z,1.47
2023-12-23T09:23:25.566Z,1.41
2023-12-23T09:25:52.630Z,1.33
2023-12-23T09:28:19.644Z,1.38
2023-12-23T09:30:46.712Z,1.40
2023-12-23T09:33:13.799Z,1.37
2023-12-23T09:35:40.901Z,1.38
2023-12-23T09:38:07.998Z,1.30
2023-12-23T09:40:35.005Z,1.19
2023-12-23T09:43:02.735Z,1.11
2023-12-23T09:45:32.110Z,1.05
2023-12-23T09:47:59.479Z,0.97
2023-12-23T09:50:26.663Z,0.88
2023-12-23T09:52:54.240Z,0.85
2023-12-23T09:55:22.045Z,0.76
2023-12-23T09:57:49.412Z,0.73
2023-12-23T10:00:16.943Z,0.68
2023-12-23T10:02:43.964Z,0.63
2023-12-23T10:05:10.998Z,0.66
2023-12-23T10:07:38.554Z,0.65
2023-12-23T10:10:06.233Z,0.65
2023-12-23T10:12:33.170Z,0.64
2023-12-23T10:15:00.278Z,0.62
2023-12-23T10:17:27.420Z,0.54
2023-12-23T10:19:54.398Z,0.50
2023-12-23T10:22:27.374Z,0.54
2023-12-23T10:24:54.272Z,0.56
2023-12-23T10:27:22.246Z,0.56
2023-12-23T10:29:59.084Z,0.48
2023-12-23T10:32:31.002Z,0.46
2023-12-23T10:35:02.070Z,0.42
2023-12-23T10:37:30.561Z,0.35
2023-12-23T10:40:10.699Z,0.35
2023-12-23T10:42:39.704Z,0.38
2023-12-23T10:45:07.980Z,0.33
2023-12-23T10:47:36.368Z,0.32
2023-12-23T10:50:05.481Z,0.28
2023-12-23T10:52:33.519Z,0.23
2023-12-23T10:55:03.829Z,0.17
2023-12-23T10:57:32.619Z,0.19
2023-12-23T10:59:59.803Z,0.19
2023-12-23T11:02:29.169Z,0.15
2023-12-23T11:04:59.188Z,0.17
2023-12-23T11:07:30.603Z,0.18
2023-12-23T11:10:00.865Z,0.17
2023-12-23T11:12:29.715Z,0.20
2023-12-23T11:14:58.858Z,0.21
2023-12-23T11:17:28.901Z,0.17
2023-12-23T11:20:00.611Z,0.14
2023-12-23T11:22:38.779Z,0.13
2023-12-23T11:25:37.389Z,0.08
2023-12-23T11:28:11.086Z,0.04
2023-12-23T11:30:51.801Z,0.05
2023-12-23T11:33:22.968Z,0.05
2023-12-23T11:35:51.643Z,0.06
2023-12-23T11:38:18.701Z,0.03
2023-12-23T11:40:47.423Z,0.00
2023-12-23T11:43:15.400Z,0.02
2023-12-23T11:45:43.756Z,-0.01
2023-12-23T11:48:11.546Z,0.01
2023-12-23T11:50:38.638Z,-0.03
2023-12-23T11:53:06.924Z,-0.01
2023-12-23T11:55:35.275Z,-0.02
2023-12-23T11:58:02.460Z,-0.05
2023-12-23T12:00:31.020Z,-0.14
2023-12-23T12:02:58.596Z,-0.11
2023-12-23T12:05:25.616Z,-0.11
2023-12-23T12:07:52.655Z,-0.17
2023-12-23T12:10:19.812Z,-0.19
2023-12-23T12:12:46.860Z,-0.19
2023-12-23T12:15:13.770Z,-0.27
2023-12-23T12:17:40.889Z,-0.35
2023-12-23T12:20:08.656Z,-0.30
2023-12-23T12:22:35.630Z,-0.28
2023-12-23T12:25:02.759Z,-0.21
2023-12-23T12:27:30.886Z,-0.18
2023-12-23T12:29:59.325Z,-0.20
2023-12-23T12:32:26.357Z,-0.19
2023-12-23T12:35:23.895Z,-0.18
2023-12-23T12:37:51.001Z,-0.13
2023-12-23T12:43:08.774Z,0.09
2023-12-23T12:48:30.293Z,2.41
2023-12-23T12:50:57.809Z,2.52
2023-12-23T12:53:25.588Z,2.85
2023-12-23T12:55:52.673Z,3.26
2023-12-23T12:58:19.696Z,3.35
2023-12-23T13:00:46.634Z,3.57
2023-12-23T13:03:38.786Z,3.97
2023-12-23T13:06:06.089Z,3.98
2023-12-23T13:08:33.154Z,3.96
2023-12-23T13:11:00.223Z,4.14
2023-12-23T13:13:27.243Z,4.20
2023-12-23T13:15:54.274Z,4.36
2023-12-23T13:18:21.330Z,4.38
2023-12-23T13:20:49.673Z,4.46
2023-12-23T13:23:16.764Z,4.61
2023-12-23T13:25:45.091Z,4.88
2023-12-23T13:28:12.126Z,4.82
2023-12-23T13:30:39.160Z,5.00
2023-12-23T13:33:06.240Z,5.20
2023-12-23T13:35:33.338Z,5.14
2023-12-23T13:38:00.465Z,5.13
2023-12-23T13:40:27.397Z,5.03
2023-12-23T13:42:54.551Z,5.28
2023-12-23T13:45:21.774Z,5.42
2023-12-23T13:47:50.408Z,5.24
2023-12-23T13:50:18.972Z,5.34
2023-12-23T13:52:46.172Z,5.22
2023-12-23T13:55:13.061Z,5.26
2023-12-23T13:57:40.031Z,5.43
2023-12-23T14:00:07.540Z,5.41
2023-12-23T14:02:34.533Z,5.48
2023-12-23T14:05:01.591Z,5.56
2023-12-23T14:07:28.628Z,5.66
2023-12-23T14:09:55.504Z,5.68
2023-12-23T14:12:22.515Z,5.63
2023-12-23T14:14:49.429Z,5.78
2023-12-23T14:17:16.456Z,5.85
2023-12-23T14:19:43.370Z,6.13
2023-12-23T14:22:10.337Z,6.02
2023-12-23T14:24:37.344Z,6.06
2023-12-23T14:27:04.332Z,5.94
2023-12-23T14:29:31.340Z,5.99
2023-12-23T14:31:58.408Z,5.99
2023-12-23T14:34:25.352Z,6.21
2023-12-23T14:36:52.461Z,6.07
2023-12-23T14:39:22.632Z,5.98
2023-12-23T14:41:51.446Z,6.13
2023-12-23T14:44:18.537Z,6.15
2023-12-23T14:46:45.799Z,6.20
2023-12-23T14:49:13.424Z,6.17
2023-12-23T14:51:40.592Z,6.23
2023-12-23T14:54:07.647Z,6.33
2023-12-23T14:56:34.682Z,6.37
2023-12-23T14:59:01.849Z,6.53
2023-12-23T15:01:28.931Z,6.38
2023-12-23T15:03:55.959Z,6.37
2023-12-23T15:06:23.093Z,6.37
2023-12-23T15:08:50.225Z,6.36
2023-12-23T15:11:17.220Z,6.55
2023-12-23T15:13:44.256Z,6.63
2023-12-23T15:16:11.217Z,6.55
2023-12-23T15:18:38.471Z,6.56
2023-12-23T15:21:07.022Z,6.64
2023-12-23T15:23:34.228Z,6.59
2023-12-23T15:26:01.297Z,6.63
2023-12-23T15:28:31.129Z,6.65
2023-12-23T15:30:58.141Z,6.67
2023-12-23T15:33:25.123Z,6.86
2023-12-23T15:35:52.173Z,6.78
2023-12-23T15:38:19.131Z,6.70
2023-12-23T15:40:46.190Z,6.69
2023-12-23T15:43:15.698Z,6.68
2023-12-23T15:45:43.286Z,6.83
2023-12-23T15:48:10.484Z,6.78
2023-12-23T15:50:37.663Z,6.77
2023-12-23T15:53:04.945Z,6.82
2023-12-23T15:55:34.603Z,6.84
2023-12-23T15:58:03.064Z,6.75
2023-12-23T16:00:30.305Z,6.78
2023-12-23T16:05:42.322Z,6.91
2023-12-23T16:08:09.882Z,6.95
2023-12-23T16:10:38.110Z,6.95
2023-12-23T16:13:05.499Z,6.91
2023-12-23T16:15:33.652Z,6.95
2023-12-23T16:18:01.282Z,6.94
2023-12-23T16:20:30.926Z,6.96
2023-12-23T16:23:02.526Z,7.00
2023-12-23T16:25:29.804Z,7.03
2023-12-23T16:27:56.929Z,7.07
2023-12-23T16:30:23.957Z,7.02
2023-12-23T16:32:51.196Z,7.11
2023-12-23T16:35:18.474Z,7.04
2023-12-23T16:37:46.092Z,7.02
2023-12-23T16:40:13.768Z,7.14
2023-12-23T16:42:40.812Z,7.13
2023-12-23T16:45:09.539Z,7.19
2023-12-23T16:47:36.798Z,7.15
2023-12-23T16:50:05.239Z,7.26
2023-12-23T16:52:32.477Z,7.34
2023-12-23T16:55:00.019Z,7.40
2023-12-23T16:57:27.013Z,7.43
2023-12-23T16:59:53.975Z,7.33
2023-12-23T17:02:23.302Z,7.39
2023-12-23T17:04:51.458Z,7.35
2023-12-23T17:07:18.481Z,7.20
2023-12-23T17:09:45.531Z,6.76
2023-12-23T17:12:12.491Z,5.90
2023-12-23T17:14:39.466Z,5.55
2023-12-23T17:17:06.512Z,5.03
2023-12-23T17:19:34.110Z,4.56
2023-12-23T17:22:01.086Z,4.21
2023-12-23T17:24:28.196Z,4.10
2023-12-23T17:26:55.091Z,4.01
2023-12-23T17:29:22.206Z,3.77
2023-12-23T17:31:49.300Z,3.54
2023-12-23T17:34:16.328Z,3.47
2023-12-23T17:36:43.510Z,3.35
2023-12-23T17:39:14.880Z,3.20
2023-12-23T17:41:44.192Z,3.18
2023-12-23T17:44:11.174Z,3.15
2023-12-23T17:46:38.175Z,3.23
2023-12-23T17:49:05.232Z,3.14
2023-12-23T17:51:32.216Z,3.18
2023-12-23T17:53:59.259Z,3.14
2023-12-23T17:56:26.364Z,3.10
2023-12-23T17:58:53.322Z,3.05
2023-12-23T18:01:20.288Z,3.10
2023-12-23T18:03:47.407Z,3.12
2023-12-23T18:06:14.416Z,3.07
2023-12-23T18:08:41.420Z,3.12
2023-12-23T18:11:08.508Z,3.18
2023-12-23T18:13:35.459Z,3.11
2023-12-23T18:16:02.486Z,3.07
2023-12-23T18:18:29.586Z,3.08
2023-12-23T18:20:56.552Z,3.11
2023-12-23T18:23:23.635Z,3.16
2023-12-23T18:25:50.771Z,3.18
2023-12-23T18:28:17.767Z,3.14
2023-12-23T18:30:45.010Z,3.19
2023-12-23T18:33:12.269Z,3.19
2023-12-23T18:35:39.399Z,3.25
2023-12-23T18:38:06.574Z,3.25
2023-12-23T18:40:33.634Z,3.22
2023-12-23T18:43:00.575Z,3.36
2023-12-23T18:45:27.776Z,3.26
2023-12-23T18:47:54.707Z,3.40
2023-12-23T18:50:21.789Z,3.42
2023-12-23T18:52:50.422Z,3.36
2023-12-23T18:55:17.618Z,3.38
2023-12-23T18:57:44.607Z,3.33
2023-12-23T19:00:12.128Z,3.28
2023-12-23T19:02:39.204Z,3.26
2023-12-23T19:05:06.536Z,3.22
2023-12-23T19:07:33.517Z,3.27
2023-12-23T19:10:00.580Z,3.28
2023-12-23T19:12:27.585Z,3.31
2023-12-23T19:14:54.657Z,3.45
2023-12-23T19:17:21.710Z,3.70
2023-12-23T19:19:48.732Z,3.95
2023-12-23T19:22:15.749Z,4.08
2023-12-23T19:24:45.931Z,4.20
2023-12-23T19:27:13.205Z,4.78
2023-12-23T19:29:40.302Z,4.83
2023-12-23T19:32:07.299Z,5.01
2023-12-23T19:34:34.438Z,5.21
2023-12-23T19:37:01.512Z,5.67
2023-12-23T19:39:28.414Z,5.77
2023-12-23T19:41:55.201Z,5.77
2023-12-23T19:44:22.134Z,5.95
2023-12-23T19:46:49.173Z,6.17
2023-12-23T19:49:16.204Z,6.16
2023-12-23T19:51:43.105Z,6.06
2023-12-23T19:54:09.845Z,6.05
2023-12-23T19:56:36.758Z,6.02
2023-12-23T19:59:03.694Z,6.07
2023-12-23T20:01:30.828Z,6.18
2023-12-23T20:03:57.640Z,6.07
2023-12-23T20:06:24.982Z,6.08
2023-12-23T20:08:51.958Z,6.24
2023-12-23T20:11:28.097Z,6.29
2023-12-23T20:13:54.925Z,6.23
2023-12-23T20:16:28.784Z,6.46
2023-12-23T20:18:56.273Z,6.32
2023-12-23T20:21:24.113Z,6.55
2023-12-23T20:23:52.219Z,6.36
2023-12-23T20:26:20.114Z,6.29
2023-12-23T20:28:47.293Z,6.29
2023-12-23T20:31:16.035Z,6.30
2023-12-23T20:33:43.312Z,6.34
2023-12-23T20:36:10.261Z,6.37
2023-12-23T20:38:37.117Z,6.32
2023-12-23T20:41:06.613Z,6.36
2023-12-23T20:43:33.554Z,6.32
2023-12-23T20:46:00.468Z,6.47
2023-12-23T20:48:27.380Z,6.60
2023-12-23T20:50:56.564Z,6.46
2023-12-23T20:53:24.226Z,6.42
2023-12-23T20:55:51.232Z,6.56
2023-12-23T20:58:18.099Z,6.51
2023-12-23T21:00:44.978Z,6.59
2023-12-23T21:03:11.898Z,6.62
2023-12-23T21:05:38.918Z,6.64
2023-12-23T21:08:06.292Z,6.68
2023-12-23T21:10:35.558Z,6.63
2023-12-23T21:13:03.694Z,6.75
2023-12-23T21:15:30.509Z,6.92
2023-12-23T21:17:57.465Z,7.05
2023-12-23T21:20:24.379Z,6.93
2023-12-23T21:22:51.595Z,6.96
2023-12-23T21:25:18.456Z,6.93
2023-12-23T21:27:45.279Z,6.89
2023-12-23T21:30:12.492Z,7.07
2023-12-23T21:32:39.494Z,7.08
2023-12-23T21:35:06.595Z,7.12
2023-12-23T21:37:33.670Z,7.07
2023-12-23T21:40:00.587Z,7.06
2023-12-23T21:42:27.394Z,7.04
2023-12-23T21:44:54.220Z,7.18
2023-12-23T21:47:21.616Z,7.17
2023-12-23T21:49:48.547Z,7.23
2023-12-23T21:52:15.367Z,7.28
2023-12-23T21:54:42.180Z,7.19
2023-12-23T21:57:09.032Z,7.19
2023-12-23T21:59:35.842Z,7.15
2023-12-23T22:02:02.753Z,7.29
2023-12-23T22:04:29.546Z,7.19
2023-12-23T22:06:57.384Z,7.25
2023-12-23T22:09:24.194Z,7.32
2023-12-23T22:11:50.950Z,7.39
2023-12-23T22:14:17.809Z,7.32
2023-12-23T22:16:44.614Z,7.35
2023-12-23T22:19:11.456Z,7.37
2023-12-23T22:21:38.517Z,7.31
2023-12-23T22:24:05.747Z,7.33
2023-12-23T22:26:32.633Z,7.36
2023-12-23T22:28:59.443Z,7.36
2023-12-23T22:31:26.255Z,7.36
2023-12-23T22:33:53.166Z,7.41
2023-12-23T22:36:20.014Z,7.42
2023-12-23T22:38:46.812Z,7.41
2023-12-23T22:41:13.744Z,7.53
2023-12-23T22:43:40.686Z,7.43
2023-12-23T22:46:07.956Z,7.51
2023-12-23T22:48:34.994Z,7.57
2023-12-23T22:51:01.807Z,7.54
2023-12-23T22:53:28.666Z,7.60
2023-12-23T22:55:55.509Z,7.61
2023-12-23T22:58:22.273Z,7.52
2023-12-23T23:00:49.068Z,7.55
2023-12-23T23:03:15.852Z,7.58
2023-12-23T23:05:42.782Z,7.52
2023-12-23T23:08:09.579Z,7.48
2023-12-23T23:10:36.572Z,7.55
2023-12-23T23:13:03.474Z,7.51
2023-12-23T23:15:30.328Z,7.44
2023-12-23T23:17:57.325Z,7.48
2023-12-23T23:20:24.332Z,7.48
2023-12-23T23:22:51.849Z,7.47
2023-12-23T23:25:18.906Z,7.49
2023-12-23T23:28:10.141Z,7.44
2023-12-23T23:30:36.989Z,7.64
2023-12-23T23:33:04.023Z,7.53
2023-12-23T23:35:31.380Z,7.43
2023-12-23T23:37:58.262Z,7.45
2023-12-23T23:40:25.183Z,7.50
2023-12-23T23:42:52.172Z,7.51
2023-12-23T23:45:19.213Z,7.45
2023-12-23T23:47:46.077Z,7.45
2023-12-23T23:50:13.117Z,7.40
2023-12-23T23:52:39.948Z,7.42
2023-12-23T23:55:08.288Z,7.37
2023-12-23T23:57:39.917Z,7.33
